sensor_id;sensor_type;location;lat;lon;timestamp;P1;durP1;ratioP1;P2;durP2;ratioP2
70899;SDS011;67902;52.154;5.430;2023-04-25T00:01:02;20.13;;;3.55;;
70899;SDS011;67902;52.154;5.430;2023-04-25T00:05:57;16.50;;;2.80;;
70899;SDS011;67902;52.154;5.430;2023-04-25T00:08:28;15.00;;;2.90;;
70899;SDS011;67902;52.154;5.430;2023-04-25T00:10:56;10.68;;;2.80;;
70899;SDS011;67902;52.154;5.430;2023-04-25T00:13:24;14.00;;;3.05;;
70899;SDS011;67902;52.154;5.430;2023-04-25T00:15:51;18.83;;;3.25;;
70899;SDS011;67902;52.154;5.430;2023-04-25T00:18:19;17.02;;;3.10;;
70899;SDS011;67902;52.154;5.430;2023-04-25T00:20:46;18.25;;;3.08;;
70899;SDS011;67902;52.154;5.430;2023-04-25T00:23:14;11.70;;;2.47;;
70899;SDS011;67902;52.154;5.430;2023-04-25T00:25:44;26.02;;;3.00;;
70899;SDS011;67902;52.154;5.430;2023-04-25T00:28:11;17.45;;;3.40;;
70899;SDS011;67902;52.154;5.430;2023-04-25T00:30:38;14.38;;;3.25;;
70899;SDS011;67902;52.154;5.430;2023-04-25T00:33:06;10.48;;;2.75;;
70899;SDS011;67902;52.154;5.430;2023-04-25T00:35:33;16.38;;;3.63;;
70899;SDS011;67902;52.154;5.430;2023-04-25T00:38:00;9.50;;;2.35;;
70899;SDS011;67902;52.154;5.430;2023-04-25T00:40:26;22.48;;;3.60;;
70899;SDS011;67902;52.154;5.430;2023-04-25T00:42:54;14.15;;;3.13;;
70899;SDS011;67902;52.154;5.430;2023-04-25T00:45:21;18.48;;;2.90;;
70899;SDS011;67902;52.154;5.430;2023-04-25T00:47:47;17.88;;;3.55;;
70899;SDS011;67902;52.154;5.430;2023-04-25T00:50:14;12.82;;;2.90;;
70899;SDS011;67902;52.154;5.430;2023-04-25T00:52:41;14.98;;;2.85;;
70899;SDS011;67902;52.154;5.430;2023-04-25T00:55:10;18.35;;;3.13;;
70899;SDS011;67902;52.154;5.430;2023-04-25T00:57:38;18.45;;;3.63;;
70899;SDS011;67902;52.154;5.430;2023-04-25T01:02:33;11.63;;;2.38;;
70899;SDS011;67902;52.154;5.430;2023-04-25T01:05:02;11.65;;;2.63;;
70899;SDS011;67902;52.154;5.430;2023-04-25T01:07:28;9.88;;;2.53;;
70899;SDS011;67902;52.154;5.430;2023-04-25T01:09:56;13.88;;;2.58;;
70899;SDS011;67902;52.154;5.430;2023-04-25T01:12:23;11.90;;;2.75;;
70899;SDS011;67902;52.154;5.430;2023-04-25T01:14:49;17.10;;;2.60;;
70899;SDS011;67902;52.154;5.430;2023-04-25T01:17:16;15.32;;;2.95;;
70899;SDS011;67902;52.154;5.430;2023-04-25T01:19:43;11.55;;;2.38;;
70899;SDS011;67902;52.154;5.430;2023-04-25T01:22:12;9.20;;;2.33;;
70899;SDS011;67902;52.154;5.430;2023-04-25T01:24:38;13.05;;;2.80;;
70899;SDS011;67902;52.154;5.430;2023-04-25T01:27:05;16.85;;;3.00;;
70899;SDS011;67902;52.154;5.430;2023-04-25T01:29:32;16.20;;;2.58;;
70899;SDS011;67902;52.154;5.430;2023-04-25T01:31:59;13.18;;;2.50;;
70899;SDS011;67902;52.154;5.430;2023-04-25T01:34:27;12.10;;;2.38;;
70899;SDS011;67902;52.154;5.430;2023-04-25T01:36:53;16.27;;;3.42;;
70899;SDS011;67902;52.154;5.430;2023-04-25T01:39:20;14.35;;;2.83;;
70899;SDS011;67902;52.154;5.430;2023-04-25T01:41:46;14.55;;;3.20;;
70899;SDS011;67902;52.154;5.430;2023-04-25T01:44:14;13.32;;;2.45;;
70899;SDS011;67902;52.154;5.430;2023-04-25T01:46:41;13.80;;;3.08;;
70899;SDS011;67902;52.154;5.430;2023-04-25T01:49:07;12.13;;;2.58;;
70899;SDS011;67902;52.154;5.430;2023-04-25T01:51:34;10.75;;;2.65;;
70899;SDS011;67902;52.154;5.430;2023-04-25T01:54:01;11.18;;;2.50;;
70899;SDS011;67902;52.154;5.430;2023-04-25T01:56:30;10.48;;;2.72;;
70899;SDS011;67902;52.154;5.430;2023-04-25T01:58:58;12.45;;;2.55;;
70899;SDS011;67902;52.154;5.430;2023-04-25T02:01:24;14.23;;;2.72;;
70899;SDS011;67902;52.154;5.430;2023-04-25T02:03:51;14.23;;;2.92;;
70899;SDS011;67902;52.154;5.430;2023-04-25T02:06:18;15.73;;;2.97;;
70899;SDS011;67902;52.154;5.430;2023-04-25T02:08:45;15.20;;;2.70;;
70899;SDS011;67902;52.154;5.430;2023-04-25T02:11:11;12.23;;;2.83;;
70899;SDS011;67902;52.154;5.430;2023-04-25T02:13:37;16.85;;;2.83;;
70899;SDS011;67902;52.154;5.430;2023-04-25T02:16:04;16.42;;;2.70;;
70899;SDS011;67902;52.154;5.430;2023-04-25T02:18:31;12.02;;;2.50;;
70899;SDS011;67902;52.154;5.430;2023-04-25T02:20:59;12.93;;;2.75;;
70899;SDS011;67902;52.154;5.430;2023-04-25T02:23:25;13.52;;;2.78;;
70899;SDS011;67902;52.154;5.430;2023-04-25T02:25:52;12.57;;;2.80;;
70899;SDS011;67902;52.154;5.430;2023-04-25T02:28:18;14.98;;;2.88;;
70899;SDS011;67902;52.154;5.430;2023-04-25T02:30:45;13.23;;;2.60;;
70899;SDS011;67902;52.154;5.430;2023-04-25T02:33:11;8.65;;;2.30;;
70899;SDS011;67902;52.154;5.430;2023-04-25T02:35:38;14.10;;;2.72;;
70899;SDS011;67902;52.154;5.430;2023-04-25T02:38:04;12.45;;;2.40;;
70899;SDS011;67902;52.154;5.430;2023-04-25T02:40:31;19.60;;;3.00;;
70899;SDS011;67902;52.154;5.430;2023-04-25T02:42:57;14.32;;;2.65;;
70899;SDS011;67902;52.154;5.430;2023-04-25T02:45:23;12.57;;;2.75;;
70899;SDS011;67902;52.154;5.430;2023-04-25T02:47:50;16.25;;;3.10;;
70899;SDS011;67902;52.154;5.430;2023-04-25T02:50:16;13.10;;;2.70;;
70899;SDS011;67902;52.154;5.430;2023-04-25T02:55:12;11.50;;;2.50;;
70899;SDS011;67902;52.154;5.430;2023-04-25T02:57:39;10.82;;;2.55;;
70899;SDS011;67902;52.154;5.430;2023-04-25T03:00:05;12.90;;;2.85;;
70899;SDS011;67902;52.154;5.430;2023-04-25T03:02:33;14.68;;;2.90;;
70899;SDS011;67902;52.154;5.430;2023-04-25T03:04:59;13.75;;;2.50;;
70899;SDS011;67902;52.154;5.430;2023-04-25T03:07:26;12.88;;;2.33;;
70899;SDS011;67902;52.154;5.430;2023-04-25T03:09:52;11.57;;;2.33;;
70899;SDS011;67902;52.154;5.430;2023-04-25T03:12:19;8.95;;;2.58;;
70899;SDS011;67902;52.154;5.430;2023-04-25T03:14:45;9.98;;;2.70;;
70899;SDS011;67902;52.154;5.430;2023-04-25T03:17:12;12.45;;;2.55;;
70899;SDS011;67902;52.154;5.430;2023-04-25T03:19:38;9.55;;;2.33;;
70899;SDS011;67902;52.154;5.430;2023-04-25T03:22:04;18.55;;;2.60;;
70899;SDS011;67902;52.154;5.430;2023-04-25T03:24:31;14.18;;;3.17;;
70899;SDS011;67902;52.154;5.430;2023-04-25T03:26:57;13.85;;;3.30;;
70899;SDS011;67902;52.154;5.430;2023-04-25T03:29:24;12.38;;;2.58;;
70899;SDS011;67902;52.154;5.430;2023-04-25T03:31:52;16.23;;;3.03;;
70899;SDS011;67902;52.154;5.430;2023-04-25T03:34:19;15.70;;;3.17;;
70899;SDS011;67902;52.154;5.430;2023-04-25T03:36:45;9.57;;;3.28;;
70899;SDS011;67902;52.154;5.430;2023-04-25T03:39:11;12.68;;;2.83;;
70899;SDS011;67902;52.154;5.430;2023-04-25T03:41:38;14.80;;;3.00;;
70899;SDS011;67902;52.154;5.430;2023-04-25T03:44:04;10.27;;;2.55;;
70899;SDS011;67902;52.154;5.430;2023-04-25T03:46:31;15.60;;;3.40;;
70899;SDS011;67902;52.154;5.430;2023-04-25T03:48:58;11.48;;;2.40;;
70899;SDS011;67902;52.154;5.430;2023-04-25T03:51:25;9.50;;;2.47;;
70899;SDS011;67902;52.154;5.430;2023-04-25T03:53:51;13.77;;;2.42;;
70899;SDS011;67902;52.154;5.430;2023-04-25T03:56:18;15.02;;;2.80;;
70899;SDS011;67902;52.154;5.430;2023-04-25T03:58:46;12.05;;;2.53;;
70899;SDS011;67902;52.154;5.430;2023-04-25T04:01:12;11.18;;;2.28;;
70899;SDS011;67902;52.154;5.430;2023-04-25T04:03:39;11.52;;;2.42;;
70899;SDS011;67902;52.154;5.430;2023-04-25T04:06:06;17.75;;;2.72;;
70899;SDS011;67902;52.154;5.430;2023-04-25T04:08:33;10.55;;;2.17;;
70899;SDS011;67902;52.154;5.430;2023-04-25T04:10:59;12.35;;;2.65;;
70899;SDS011;67902;52.154;5.430;2023-04-25T04:13:26;11.63;;;2.28;;
70899;SDS011;67902;52.154;5.430;2023-04-25T04:15:53;14.43;;;2.30;;
70899;SDS011;67902;52.154;5.430;2023-04-25T04:18:20;11.50;;;2.35;;
70899;SDS011;67902;52.154;5.430;2023-04-25T04:20:46;15.30;;;2.45;;
70899;SDS011;67902;52.154;5.430;2023-04-25T04:23:12;9.55;;;2.10;;
70899;SDS011;67902;52.154;5.430;2023-04-25T04:25:39;12.65;;;2.03;;
70899;SDS011;67902;52.154;5.430;2023-04-25T04:28:06;9.40;;;1.90;;
70899;SDS011;67902;52.154;5.430;2023-04-25T04:30:33;9.23;;;1.83;;
70899;SDS011;67902;52.154;5.430;2023-04-25T04:33:02;7.97;;;2.30;;
70899;SDS011;67902;52.154;5.430;2023-04-25T04:35:29;9.70;;;1.90;;
70899;SDS011;67902;52.154;5.430;2023-04-25T04:37:56;5.00;;;1.30;;
70899;SDS011;67902;52.154;5.430;2023-04-25T04:40:22;10.13;;;2.10;;
70899;SDS011;67902;52.154;5.430;2023-04-25T04:42:49;8.50;;;1.30;;
70899;SDS011;67902;52.154;5.430;2023-04-25T04:45:15;10.75;;;1.67;;
70899;SDS011;67902;52.154;5.430;2023-04-25T04:47:42;6.55;;;1.40;;
70899;SDS011;67902;52.154;5.430;2023-04-25T04:50:09;8.00;;;1.65;;
70899;SDS011;67902;52.154;5.430;2023-04-25T04:52:36;9.00;;;1.40;;
70899;SDS011;67902;52.154;5.430;2023-04-25T04:55:04;7.60;;;1.20;;
70899;SDS011;67902;52.154;5.430;2023-04-25T04:57:31;5.07;;;1.50;;
70899;SDS011;67902;52.154;5.430;2023-04-25T04:59:59;5.63;;;1.40;;
70899;SDS011;67902;52.154;5.430;2023-04-25T05:02:25;8.00;;;1.98;;
70899;SDS011;67902;52.154;5.430;2023-04-25T05:04:52;9.20;;;1.45;;
70899;SDS011;67902;52.154;5.430;2023-04-25T05:07:19;6.55;;;1.73;;
70899;SDS011;67902;52.154;5.430;2023-04-25T05:09:45;9.82;;;1.63;;
70899;SDS011;67902;52.154;5.430;2023-04-25T05:12:11;9.88;;;1.55;;
70899;SDS011;67902;52.154;5.430;2023-04-25T05:14:38;9.27;;;1.50;;
70899;SDS011;67902;52.154;5.430;2023-04-25T05:17:04;12.20;;;1.60;;
70899;SDS011;67902;52.154;5.430;2023-04-25T05:19:34;10.77;;;1.77;;
70899;SDS011;67902;52.154;5.430;2023-04-25T05:22:01;9.18;;;1.75;;
70899;SDS011;67902;52.154;5.430;2023-04-25T05:24:28;6.90;;;1.95;;
70899;SDS011;67902;52.154;5.430;2023-04-25T05:26:55;5.97;;;1.67;;
70899;SDS011;67902;52.154;5.430;2023-04-25T05:29:21;10.55;;;1.60;;
70899;SDS011;67902;52.154;5.430;2023-04-25T05:31:48;11.13;;;1.60;;
70899;SDS011;67902;52.154;5.430;2023-04-25T05:34:14;8.27;;;1.77;;
70899;SDS011;67902;52.154;5.430;2023-04-25T05:36:42;9.68;;;1.73;;
70899;SDS011;67902;52.154;5.430;2023-04-25T05:39:09;10.68;;;1.90;;
70899;SDS011;67902;52.154;5.430;2023-04-25T05:41:36;6.28;;;1.50;;
70899;SDS011;67902;52.154;5.430;2023-04-25T05:44:02;9.15;;;1.83;;
70899;SDS011;67902;52.154;5.430;2023-04-25T05:46:29;9.93;;;1.83;;
70899;SDS011;67902;52.154;5.430;2023-04-25T05:48:56;11.07;;;1.90;;
70899;SDS011;67902;52.154;5.430;2023-04-25T05:51:22;12.45;;;1.80;;
70899;SDS011;67902;52.154;5.430;2023-04-25T05:53:48;9.63;;;1.88;;
70899;SDS011;67902;52.154;5.430;2023-04-25T05:56:15;11.43;;;1.70;;
70899;SDS011;67902;52.154;5.430;2023-04-25T05:58:42;15.07;;;1.88;;
70899;SDS011;67902;52.154;5.430;2023-04-25T06:01:08;8.57;;;1.65;;
70899;SDS011;67902;52.154;5.430;2023-04-25T06:03:35;10.20;;;1.92;;
70899;SDS011;67902;52.154;5.430;2023-04-25T06:06:04;11.55;;;1.70;;
70899;SDS011;67902;52.154;5.430;2023-04-25T06:08:31;6.28;;;1.50;;
70899;SDS011;67902;52.154;5.430;2023-04-25T06:10:57;12.10;;;1.60;;
70899;SDS011;67902;52.154;5.430;2023-04-25T06:13:25;8.75;;;1.27;;
70899;SDS011;67902;52.154;5.430;2023-04-25T06:15:51;6.97;;;1.35;;
70899;SDS011;67902;52.154;5.430;2023-04-25T06:18:18;9.57;;;1.55;;
70899;SDS011;67902;52.154;5.430;2023-04-25T06:20:44;8.32;;;1.45;;
70899;SDS011;67902;52.154;5.430;2023-04-25T06:23:11;7.72;;;1.20;;
70899;SDS011;67902;52.154;5.430;2023-04-25T06:25:37;10.88;;;1.92;;
70899;SDS011;67902;52.154;5.430;2023-04-25T06:28:03;12.27;;;2.28;;
70899;SDS011;67902;52.154;5.430;2023-04-25T06:30:30;6.55;;;1.30;;
70899;SDS011;67902;52.154;5.430;2023-04-25T06:32:57;10.50;;;1.50;;
70899;SDS011;67902;52.154;5.430;2023-04-25T06:35:23;7.60;;;1.48;;
70899;SDS011;67902;52.154;5.430;2023-04-25T06:37:50;7.22;;;1.70;;
70899;SDS011;67902;52.154;5.430;2023-04-25T06:40:16;15.38;;;2.08;;
70899;SDS011;67902;52.154;5.430;2023-04-25T06:42:43;8.68;;;1.58;;
70899;SDS011;67902;52.154;5.430;2023-04-25T06:45:10;7.18;;;1.33;;
70899;SDS011;67902;52.154;5.430;2023-04-25T06:47:36;6.53;;;1.27;;
70899;SDS011;67902;52.154;5.430;2023-04-25T06:50:03;11.93;;;1.90;;
70899;SDS011;67902;52.154;5.430;2023-04-25T06:52:30;8.63;;;1.50;;
70899;SDS011;67902;52.154;5.430;2023-04-25T06:54:57;10.27;;;1.70;;
70899;SDS011;67902;52.154;5.430;2023-04-25T06:57:24;9.82;;;1.90;;
70899;SDS011;67902;52.154;5.430;2023-04-25T06:59:50;7.75;;;1.60;;
70899;SDS011;67902;52.154;5.430;2023-04-25T07:02:17;10.23;;;1.88;;
70899;SDS011;67902;52.154;5.430;2023-04-25T07:04:43;9.15;;;1.63;;
70899;SDS011;67902;52.154;5.430;2023-04-25T07:07:11;5.82;;;1.40;;
70899;SDS011;67902;52.154;5.430;2023-04-25T07:09:37;8.05;;;1.40;;
70899;SDS011;67902;52.154;5.430;2023-04-25T07:12:04;9.55;;;1.23;;
70899;SDS011;67902;52.154;5.430;2023-04-25T07:14:30;15.07;;;1.83;;
70899;SDS011;67902;52.154;5.430;2023-04-25T07:16:57;14.20;;;2.33;;
70899;SDS011;67902;52.154;5.430;2023-04-25T07:19:24;8.40;;;1.42;;
70899;SDS011;67902;52.154;5.430;2023-04-25T07:21:52;6.15;;;1.30;;
70899;SDS011;67902;52.154;5.430;2023-04-25T07:24:19;13.50;;;1.58;;
70899;SDS011;67902;52.154;5.430;2023-04-25T07:26:45;7.93;;;1.67;;
70899;SDS011;67902;52.154;5.430;2023-04-25T07:29:13;12.02;;;1.70;;
70899;SDS011;67902;52.154;5.430;2023-04-25T07:31:39;7.25;;;1.25;;
70899;SDS011;67902;52.154;5.430;2023-04-25T07:34:06;8.68;;;1.50;;
70899;SDS011;67902;52.154;5.430;2023-04-25T07:36:32;8.02;;;1.70;;
70899;SDS011;67902;52.154;5.430;2023-04-25T07:38:59;6.70;;;1.40;;
70899;SDS011;67902;52.154;5.430;2023-04-25T07:41:25;6.28;;;1.35;;
70899;SDS011;67902;52.154;5.430;2023-04-25T07:43:52;8.20;;;1.50;;
70899;SDS011;67902;52.154;5.430;2023-04-25T07:46:18;7.03;;;1.52;;
70899;SDS011;67902;52.154;5.430;2023-04-25T07:48:44;8.60;;;1.40;;
70899;SDS011;67902;52.154;5.430;2023-04-25T07:51:11;7.00;;;1.05;;
70899;SDS011;67902;52.154;5.430;2023-04-25T07:53:37;8.23;;;1.30;;
70899;SDS011;67902;52.154;5.430;2023-04-25T07:56:04;8.57;;;1.20;;
70899;SDS011;67902;52.154;5.430;2023-04-25T07:58:31;9.45;;;1.30;;
70899;SDS011;67902;52.154;5.430;2023-04-25T08:00:57;7.55;;;1.10;;
70899;SDS011;67902;52.154;5.430;2023-04-25T08:03:23;6.18;;;1.25;;
70899;SDS011;67902;52.154;5.430;2023-04-25T08:05:50;7.05;;;1.00;;
70899;SDS011;67902;52.154;5.430;2023-04-25T08:08:17;11.35;;;1.60;;
70899;SDS011;67902;52.154;5.430;2023-04-25T08:10:43;4.05;;;1.10;;
70899;SDS011;67902;52.154;5.430;2023-04-25T08:13:10;8.65;;;1.40;;
70899;SDS011;67902;52.154;5.430;2023-04-25T08:15:36;9.57;;;1.13;;
70899;SDS011;67902;52.154;5.430;2023-04-25T08:18:03;10.48;;;1.30;;
70899;SDS011;67902;52.154;5.430;2023-04-25T08:20:29;6.07;;;1.20;;
70899;SDS011;67902;52.154;5.430;2023-04-25T08:22:56;5.85;;;1.40;;
70899;SDS011;67902;52.154;5.430;2023-04-25T08:25:23;5.90;;;1.10;;
70899;SDS011;67902;52.154;5.430;2023-04-25T08:27:49;9.57;;;1.60;;
70899;SDS011;67902;52.154;5.430;2023-04-25T08:30:15;7.50;;;0.90;;
70899;SDS011;67902;52.154;5.430;2023-04-25T08:32:42;8.90;;;1.48;;
70899;SDS011;67902;52.154;5.430;2023-04-25T08:35:09;11.15;;;1.30;;
70899;SDS011;67902;52.154;5.430;2023-04-25T08:37:35;7.07;;;1.10;;
70899;SDS011;67902;52.154;5.430;2023-04-25T08:40:03;5.25;;;0.80;;
70899;SDS011;67902;52.154;5.430;2023-04-25T08:42:33;6.53;;;1.67;;
70899;SDS011;67902;52.154;5.430;2023-04-25T08:45:03;6.38;;;1.00;;
70899;SDS011;67902;52.154;5.430;2023-04-25T08:47:32;4.90;;;1.02;;
70899;SDS011;67902;52.154;5.430;2023-04-25T08:50:02;5.57;;;1.15;;
70899;SDS011;67902;52.154;5.430;2023-04-25T08:52:30;7.65;;;1.30;;
70899;SDS011;67902;52.154;5.430;2023-04-25T08:55:01;5.40;;;1.15;;
70899;SDS011;67902;52.154;5.430;2023-04-25T08:57:28;10.25;;;1.23;;
70899;SDS011;67902;52.154;5.430;2023-04-25T08:59:56;9.77;;;1.10;;
70899;SDS011;67902;52.154;5.430;2023-04-25T09:02:24;12.02;;;1.40;;
70899;SDS011;67902;52.154;5.430;2023-04-25T09:04:51;6.57;;;1.30;;
70899;SDS011;67902;52.154;5.430;2023-04-25T09:07:20;6.80;;;1.20;;
70899;SDS011;67902;52.154;5.430;2023-04-25T09:09:47;5.35;;;1.08;;
70899;SDS011;67902;52.154;5.430;2023-04-25T09:12:14;6.88;;;0.95;;
70899;SDS011;67902;52.154;5.430;2023-04-25T09:14:41;6.72;;;1.08;;
70899;SDS011;67902;52.154;5.430;2023-04-25T09:17:09;9.95;;;1.10;;
70899;SDS011;67902;52.154;5.430;2023-04-25T09:19:35;6.35;;;1.13;;
70899;SDS011;67902;52.154;5.430;2023-04-25T09:22:07;4.82;;;0.98;;
70899;SDS011;67902;52.154;5.430;2023-04-25T09:24:38;5.22;;;1.10;;
70899;SDS011;67902;52.154;5.430;2023-04-25T09:27:08;9.07;;;1.30;;
70899;SDS011;67902;52.154;5.430;2023-04-25T09:29:44;9.25;;;1.02;;
70899;SDS011;67902;52.154;5.430;2023-04-25T09:32:11;6.03;;;1.05;;
70899;SDS011;67902;52.154;5.430;2023-04-25T09:34:42;4.72;;;1.00;;
70899;SDS011;67902;52.154;5.430;2023-04-25T09:37:10;5.68;;;1.25;;
70899;SDS011;67902;52.154;5.430;2023-04-25T09:39:38;8.35;;;1.30;;
70899;SDS011;67902;52.154;5.430;2023-04-25T09:44:31;6.05;;;1.20;;
70899;SDS011;67902;52.154;5.430;2023-04-25T09:46:58;3.97;;;0.70;;
70899;SDS011;67902;52.154;5.430;2023-04-25T09:49:25;5.75;;;1.08;;
70899;SDS011;67902;52.154;5.430;2023-04-25T09:51:54;5.57;;;0.90;;
70899;SDS011;67902;52.154;5.430;2023-04-25T09:54:26;5.35;;;1.30;;
70899;SDS011;67902;52.154;5.430;2023-04-25T09:56:53;6.78;;;1.27;;
70899;SDS011;67902;52.154;5.430;2023-04-25T09:59:20;4.20;;;1.00;;
70899;SDS011;67902;52.154;5.430;2023-04-25T10:01:50;5.07;;;1.00;;
70899;SDS011;67902;52.154;5.430;2023-04-25T10:04:21;6.18;;;1.00;;
70899;SDS011;67902;52.154;5.430;2023-04-25T10:06:50;7.38;;;1.35;;
70899;SDS011;67902;52.154;5.430;2023-04-25T10:09:20;7.07;;;1.13;;
70899;SDS011;67902;52.154;5.430;2023-04-25T10:14:17;3.17;;;0.82;;
70899;SDS011;67902;52.154;5.430;2023-04-25T10:16:45;5.25;;;1.00;;
70899;SDS011;67902;52.154;5.430;2023-04-25T10:19:13;5.60;;;1.10;;
70899;SDS011;67902;52.154;5.430;2023-04-25T10:21:48;4.95;;;1.30;;
70899;SDS011;67902;52.154;5.430;2023-04-25T10:24:17;3.13;;;0.70;;
70899;SDS011;67902;52.154;5.430;2023-04-25T10:26:45;6.95;;;1.27;;
70899;SDS011;67902;52.154;5.430;2023-04-25T10:31:47;6.50;;;1.13;;
70899;SDS011;67902;52.154;5.430;2023-04-25T10:34:13;6.93;;;1.33;;
70899;SDS011;67902;52.154;5.430;2023-04-25T10:36:41;7.85;;;1.10;;
70899;SDS011;67902;52.154;5.430;2023-04-25T10:39:08;2.92;;;0.80;;
70899;SDS011;67902;52.154;5.430;2023-04-25T10:44:34;6.28;;;1.00;;
70899;SDS011;67902;52.154;5.430;2023-04-25T10:47:03;6.82;;;1.27;;
70899;SDS011;67902;52.154;5.430;2023-04-25T10:49:34;6.95;;;1.13;;
70899;SDS011;67902;52.154;5.430;2023-04-25T10:54:46;8.25;;;1.30;;
70899;SDS011;67902;52.154;5.430;2023-04-25T10:57:27;4.93;;;1.10;;
70899;SDS011;67902;52.154;5.430;2023-04-25T10:59:58;6.85;;;1.60;;
70899;SDS011;67902;52.154;5.430;2023-04-25T11:02:26;5.13;;;1.10;;
70899;SDS011;67902;52.154;5.430;2023-04-25T11:04:55;7.65;;;1.35;;
70899;SDS011;67902;52.154;5.430;2023-04-25T11:07:37;6.05;;;0.98;;
70899;SDS011;67902;52.154;5.430;2023-04-25T11:10:31;5.55;;;0.95;;
70899;SDS011;67902;52.154;5.430;2023-04-25T11:12:59;9.02;;;1.25;;
70899;SDS011;67902;52.154;5.430;2023-04-25T11:15:26;7.55;;;1.23;;
70899;SDS011;67902;52.154;5.430;2023-04-25T11:17:53;5.45;;;1.02;;
70899;SDS011;67902;52.154;5.430;2023-04-25T11:20:21;8.93;;;1.40;;
70899;SDS011;67902;52.154;5.430;2023-04-25T11:25:17;6.25;;;1.00;;
70899;SDS011;67902;52.154;5.430;2023-04-25T11:27:51;7.47;;;1.17;;
70899;SDS011;67902;52.154;5.430;2023-04-25T11:30:18;5.97;;;1.45;;
70899;SDS011;67902;52.154;5.430;2023-04-25T11:32:46;5.93;;;1.55;;
70899;SDS011;67902;52.154;5.430;2023-04-25T11:35:12;8.52;;;1.58;;
70899;SDS011;67902;52.154;5.430;2023-04-25T11:37:39;6.95;;;1.15;;
70899;SDS011;67902;52.154;5.430;2023-04-25T11:42:38;6.95;;;1.00;;
70899;SDS011;67902;52.154;5.430;2023-04-25T11:45:07;6.22;;;1.10;;
70899;SDS011;67902;52.154;5.430;2023-04-25T11:47:35;6.30;;;1.23;;
70899;SDS011;67902;52.154;5.430;2023-04-25T11:50:03;10.90;;;1.40;;
70899;SDS011;67902;52.154;5.430;2023-04-25T11:52:50;6.60;;;1.30;;
70899;SDS011;67902;52.154;5.430;2023-04-25T11:55:17;9.18;;;1.40;;
70899;SDS011;67902;52.154;5.430;2023-04-25T11:57:49;9.85;;;1.60;;
70899;SDS011;67902;52.154;5.430;2023-04-25T12:00:19;6.22;;;1.20;;
70899;SDS011;67902;52.154;5.430;2023-04-25T12:02:47;5.53;;;0.90;;
70899;SDS011;67902;52.154;5.430;2023-04-25T12:05:18;9.90;;;1.55;;
70899;SDS011;67902;52.154;5.430;2023-04-25T12:07:58;8.43;;;1.38;;
70899;SDS011;67902;52.154;5.430;2023-04-25T12:10:36;9.70;;;1.48;;
70899;SDS011;67902;52.154;5.430;2023-04-25T12:13:20;7.57;;;1.30;;
70899;SDS011;67902;52.154;5.430;2023-04-25T12:15:48;7.93;;;1.30;;
70899;SDS011;67902;52.154;5.430;2023-04-25T12:18:15;8.85;;;1.25;;
70899;SDS011;67902;52.154;5.430;2023-04-25T12:20:45;7.38;;;1.00;;
70899;SDS011;67902;52.154;5.430;2023-04-25T12:23:11;3.97;;;0.93;;
70899;SDS011;67902;52.154;5.430;2023-04-25T12:25:39;7.82;;;1.42;;
70899;SDS011;67902;52.154;5.430;2023-04-25T12:31:02;8.98;;;1.85;;
70899;SDS011;67902;52.154;5.430;2023-04-25T12:33:34;4.22;;;1.10;;
70899;SDS011;67902;52.154;5.430;2023-04-25T12:36:04;7.38;;;1.25;;
70899;SDS011;67902;52.154;5.430;2023-04-25T12:38:38;7.88;;;1.33;;
70899;SDS011;67902;52.154;5.430;2023-04-25T12:41:06;5.40;;;1.30;;
70899;SDS011;67902;52.154;5.430;2023-04-25T12:43:33;4.93;;;1.02;;
70899;SDS011;67902;52.154;5.430;2023-04-25T12:46:00;7.45;;;1.40;;
70899;SDS011;67902;52.154;5.430;2023-04-25T12:48:26;6.30;;;1.10;;
70899;SDS011;67902;52.154;5.430;2023-04-25T12:50:53;5.85;;;1.20;;
70899;SDS011;67902;52.154;5.430;2023-04-25T12:53:20;6.28;;;1.35;;
70899;SDS011;67902;52.154;5.430;2023-04-25T12:55:47;4.57;;;0.90;;
70899;SDS011;67902;52.154;5.430;2023-04-25T12:58:14;4.60;;;0.90;;
70899;SDS011;67902;52.154;5.430;2023-04-25T13:00:42;7.35;;;1.10;;
70899;SDS011;67902;52.154;5.430;2023-04-25T13:03:09;6.20;;;1.27;;
70899;SDS011;67902;52.154;5.430;2023-04-25T13:05:37;6.85;;;1.00;;
70899;SDS011;67902;52.154;5.430;2023-04-25T13:08:04;4.13;;;0.80;;
70899;SDS011;67902;52.154;5.430;2023-04-25T13:10:30;7.60;;;1.48;;
70899;SDS011;67902;52.154;5.430;2023-04-25T13:12:57;7.30;;;1.13;;
70899;SDS011;67902;52.154;5.430;2023-04-25T13:15:23;4.88;;;1.27;;
70899;SDS011;67902;52.154;5.430;2023-04-25T13:17:50;7.30;;;1.33;;
70899;SDS011;67902;52.154;5.430;2023-04-25T13:20:16;4.95;;;1.30;;
70899;SDS011;67902;52.154;5.430;2023-04-25T13:22:44;8.13;;;1.38;;
70899;SDS011;67902;52.154;5.430;2023-04-25T13:25:11;9.90;;;1.65;;
70899;SDS011;67902;52.154;5.430;2023-04-25T13:27:38;7.10;;;1.48;;
70899;SDS011;67902;52.154;5.430;2023-04-25T13:30:06;5.68;;;1.10;;
70899;SDS011;67902;52.154;5.430;2023-04-25T13:32:34;6.28;;;1.27;;
70899;SDS011;67902;52.154;5.430;2023-04-25T13:35:06;7.30;;;1.05;;
70899;SDS011;67902;52.154;5.430;2023-04-25T13:40:03;4.65;;;1.20;;
70899;SDS011;67902;52.154;5.430;2023-04-25T13:42:32;7.18;;;1.10;;
70899;SDS011;67902;52.154;5.430;2023-04-25T13:44:58;4.40;;;1.08;;
70899;SDS011;67902;52.154;5.430;2023-04-25T13:47:25;5.22;;;0.90;;
70899;SDS011;67902;52.154;5.430;2023-04-25T13:49:52;7.07;;;1.27;;
70899;SDS011;67902;52.154;5.430;2023-04-25T13:52:18;5.20;;;1.20;;
70899;SDS011;67902;52.154;5.430;2023-04-25T13:54:45;6.70;;;1.40;;
70899;SDS011;67902;52.154;5.430;2023-04-25T13:57:11;5.63;;;1.13;;
70899;SDS011;67902;52.154;5.430;2023-04-25T13:59:38;8.85;;;1.25;;
70899;SDS011;67902;52.154;5.430;2023-04-25T14:02:06;7.72;;;1.20;;
70899;SDS011;67902;52.154;5.430;2023-04-25T14:04:33;6.22;;;1.30;;
70899;SDS011;67902;52.154;5.430;2023-04-25T14:06:59;4.70;;;1.52;;
70899;SDS011;67902;52.154;5.430;2023-04-25T14:09:26;5.80;;;1.25;;
70899;SDS011;67902;52.154;5.430;2023-04-25T14:11:53;6.82;;;1.38;;
70899;SDS011;67902;52.154;5.430;2023-04-25T14:14:20;7.82;;;1.40;;
70899;SDS011;67902;52.154;5.430;2023-04-25T14:16:48;6.38;;;1.42;;
70899;SDS011;67902;52.154;5.430;2023-04-25T14:19:14;4.55;;;1.20;;
70899;SDS011;67902;52.154;5.430;2023-04-25T14:21:41;7.13;;;1.30;;
70899;SDS011;67902;52.154;5.430;2023-04-25T14:26:36;6.38;;;1.40;;
70899;SDS011;67902;52.154;5.430;2023-04-25T14:29:07;4.80;;;1.20;;
70899;SDS011;67902;52.154;5.430;2023-04-25T14:31:34;7.15;;;1.20;;
70899;SDS011;67902;52.154;5.430;2023-04-25T14:34:01;5.25;;;1.10;;
70899;SDS011;67902;52.154;5.430;2023-04-25T14:36:28;6.65;;;1.10;;
70899;SDS011;67902;52.154;5.430;2023-04-25T14:38:54;6.65;;;1.20;;
70899;SDS011;67902;52.154;5.430;2023-04-25T14:41:21;7.63;;;1.35;;
70899;SDS011;67902;52.154;5.430;2023-04-25T14:43:49;4.68;;;1.20;;
70899;SDS011;67902;52.154;5.430;2023-04-25T14:46:15;4.25;;;1.20;;
70899;SDS011;67902;52.154;5.430;2023-04-25T14:48:42;6.95;;;1.33;;
70899;SDS011;67902;52.154;5.430;2023-04-25T14:51:09;7.90;;;1.70;;
70899;SDS011;67902;52.154;5.430;2023-04-25T14:53:35;8.32;;;1.42;;
70899;SDS011;67902;52.154;5.430;2023-04-25T14:56:02;7.10;;;1.23;;
70899;SDS011;67902;52.154;5.430;2023-04-25T14:58:28;4.47;;;1.00;;
70899;SDS011;67902;52.154;5.430;2023-04-25T15:00:55;4.72;;;1.17;;
70899;SDS011;67902;52.154;5.430;2023-04-25T15:03:21;4.50;;;1.10;;
70899;SDS011;67902;52.154;5.430;2023-04-25T15:05:49;7.90;;;1.27;;
70899;SDS011;67902;52.154;5.430;2023-04-25T15:08:15;4.90;;;1.40;;
70899;SDS011;67902;52.154;5.430;2023-04-25T15:10:42;7.13;;;1.23;;
70899;SDS011;67902;52.154;5.430;2023-04-25T15:13:08;6.38;;;1.10;;
70899;SDS011;67902;52.154;5.430;2023-04-25T15:15:36;10.82;;;1.40;;
70899;SDS011;67902;52.154;5.430;2023-04-25T15:18:02;6.13;;;1.25;;